Time;durP1;ratioP1;P1;durP2;ratioP2;P2;SDS_P1;SDS_P2;PMS_P1;PMS_P2;Temp;Humidity;BMP_temperature;BMP_pressure;BME280_temperature;BME280_humidity;BME280_pressure;Samples;Min_cycle;Max_cycle;Signal;HPM_P1;HPM_P2
2021/01/20 00:01:06;;;;;;;7.22;3.97;;;2.20;99.90;;;;;;468150;254;27539;-70
2021/01/20 00:03:07;;;;;;;4.12;3.17;;;2.20;99.90;;;;;;468205;253;27535;-70
2021/01/20 00:05:08;;;;;;;5.50;2.85;;;2.30;99.90;;;;;;468243;254;27512;-69
2021/01/20 00:07:10;;;;;;;6.72;3.08;;;2.20;99.90;;;;;;468250;254;27549;-69
2021/01/20 00:09:11;;;;;;;3.95;2.83;;;2.20;99.90;;;;;;468267;254;27657;-70
2021/01/20 00:11:12;;;;;;;5.07;3.00;;;2.30;99.90;;;;;;468253;254;27646;-69
2021/01/20 00:13:15;;;;;;;6.25;3.12;;;2.30;99.90;;;;;;468356;254;27896;-70
2021/01/20 00:15:15;;;;;;;3.95;2.92;;;2.30;99.90;;;;;;468199;254;28081;-71
2021/01/20 00:17:16;;;;;;;4.18;2.80;;;2.40;99.90;;;;;;468345;254;28022;-70
2021/01/20 00:19:17;;;;;;;3.53;2.95;;;2.50;99.90;;;;;;467567;254;28483;-70
2021/01/20 00:21:18;;;;;;;2.67;2.47;;;2.60;99.90;;;;;;468087;254;28026;-69
2021/01/20 00:23:20;;;;;;;4.53;3.00;;;2.60;99.90;;;;;;468188;254;27535;-69
2021/01/20 00:25:21;;;;;;;3.12;2.83;;;2.60;99.90;;;;;;474196;249;27521;-69
2021/01/20 00:27:22;;;;;;;3.33;2.70;;;2.70;99.90;;;;;;476777;249;27465;-70
2021/01/20 00:29:23;;;;;;;3.17;2.45;;;2.70;99.90;;;;;;476776;249;27435;-70
2021/01/20 00:31:25;;;;;;;3.00;2.80;;;2.70;99.90;;;;;;476735;249;27428;-70
2021/01/20 00:33:26;;;;;;;3.10;2.80;;;2.80;99.90;;;;;;476793;249;27423;-69
2021/01/20 00:35:27;;;;;;;3.35;2.75;;;2.80;99.90;;;;;;476853;249;27510;-70
2021/01/20 00:37:28;;;;;;;3.87;2.80;;;2.90;99.90;;;;;;476824;249;27398;-70
2021/01/20 00:39:30;;;;;;;4.30;2.80;;;2.90;99.90;;;;;;476852;249;27451;-69
2021/01/20 00:41:31;;;;;;;3.03;2.70;;;2.90;99.90;;;;;;476858;249;27551;-71
2021/01/20 00:43:32;;;;;;;2.87;2.40;;;2.90;99.90;;;;;;476854;249;27920;-69
2021/01/20 00:45:33;;;;;;;3.47;2.50;;;2.90;99.90;;;;;;476795;249;27923;-70
2021/01/20 00:47:35;;;;;;;5.03;2.92;;;2.90;99.90;;;;;;476850;249;27927;-69
2021/01/20 00:49:36;;;;;;;2.85;2.35;;;3.00;99.90;;;;;;476878;249;27938;-70
2021/01/20 00:51:37;;;;;;;3.53;2.47;;;3.00;99.90;;;;;;476882;248;27455;-71
2021/01/20 00:53:38;;;;;;;3.47;2.70;;;3.10;99.90;;;;;;476996;249;27376;-70
2021/01/20 00:55:40;;;;;;;2.97;2.55;;;3.10;99.90;;;;;;476970;249;27426;-70
2021/01/20 00:57:41;;;;;;;3.33;2.47;;;3.10;99.90;;;;;;477001;249;27387;-69
2021/01/20 00:59:42;;;;;;;2.97;2.40;;;3.10;99.90;;;;;;476979;248;27439;-69
2021/01/20 01:01:43;;;;;;;3.80;2.42;;;3.10;99.90;;;;;;476982;249;27450;-72
2021/01/20 01:03:45;;;;;;;3.22;2.60;;;3.10;99.90;;;;;;476994;249;27396;-70
2021/01/20 01:05:46;;;;;;;3.80;2.65;;;3.20;99.90;;;;;;476902;249;27434;-69
2021/01/20 01:07:47;;;;;;;2.97;2.30;;;3.10;99.90;;;;;;476817;249;27442;-70
2021/01/20 01:09:48;;;;;;;2.70;2.25;;;3.10;99.90;;;;;;476797;249;27463;-70
2021/01/20 01:11:50;;;;;;;3.03;2.75;;;3.10;99.90;;;;;;476791;249;27504;-71
2021/01/20 01:13:51;;;;;;;2.80;2.33;;;3.10;99.90;;;;;;476813;249;27967;-70
2021/01/20 01:15:52;;;;;;;6.30;3.60;;;3.10;99.90;;;;;;476777;249;27991;-70
2021/01/20 01:17:53;;;;;;;3.40;3.10;;;3.10;99.90;;;;;;476766;248;28085;-71
2021/01/20 01:19:55;;;;;;;8.98;8.20;;;3.10;99.90;;;;;;476679;249;27954;-71
2021/01/20 01:21:56;;;;;;;8.57;7.78;;;3.10;99.90;;;;;;476782;249;27443;-72
2021/01/20 01:23:57;;;;;;;7.12;6.53;;;3.20;99.90;;;;;;476782;249;27422;-70
2021/01/20 01:25:58;;;;;;;6.53;4.65;;;3.10;99.90;;;;;;476765;249;27610;-70
2021/01/20 01:28:00;;;;;;;5.60;5.10;;;3.10;99.90;;;;;;476775;249;27538;-71
2021/01/20 01:30:01;;;;;;;4.40;3.70;;;3.20;99.90;;;;;;476756;249;27439;-70
2021/01/20 01:32:02;;;;;;;27.13;24.65;;;3.20;99.90;;;;;;476730;248;27483;-70
2021/01/20 01:34:03;;;;;;;7.85;7.15;;;3.20;99.90;;;;;;476773;249;27546;-70
2021/01/20 01:36:05;;;;;;;4.15;3.37;;;3.20;99.90;;;;;;476815;249;27461;-71
2021/01/20 01:38:06;;;;;;;7.95;7.15;;;3.20;99.90;;;;;;476799;249;27539;-69
2021/01/20 01:40:07;;;;;;;6.32;5.65;;;3.20;99.90;;;;;;476805;249;27939;-69
2021/01/20 01:42:09;;;;;;;3.08;2.75;;;3.20;99.90;;;;;;476881;249;28009;-69
2021/01/20 01:44:10;;;;;;;6.65;2.83;;;3.20;99.90;;;;;;476766;249;29677;-70
2021/01/20 01:46:11;;;;;;;4.15;3.12;;;3.20;99.90;;;;;;476856;249;29132;-71
2021/01/20 01:48:12;;;;;;;3.20;2.80;;;3.10;99.90;;;;;;476780;249;27523;-70
2021/01/20 01:50:13;;;;;;;4.15;2.50;;;3.10;99.90;;;;;;476700;249;27447;-70
2021/01/20 01:52:15;;;;;;;2.53;2.33;;;3.10;99.90;;;;;;476722;249;27495;-69
2021/01/20 01:54:16;;;;;;;2.30;2.10;;;3.10;99.90;;;;;;476839;249;27426;-71
2021/01/20 01:56:17;;;;;;;3.20;2.40;;;3.10;99.90;;;;;;476772;249;27525;-69
2021/01/20 01:58:18;;;;;;;3.90;2.42;;;3.20;99.90;;;;;;476778;249;27443;-71
2021/01/20 02:00:20;;;;;;;3.12;2.70;;;3.10;99.90;;;;;;476709;249;27547;-70
2021/01/20 02:02:21;;;;;;;2.80;2.30;;;3.20;99.90;;;;;;476736;249;27430;-69
2021/01/20 02:04:22;;;;;;;2.30;2.10;;;3.20;99.90;;;;;;476726;249;27422;-71
2021/01/20 02:06:23;;;;;;;2.87;2.25;;;3.20;99.90;;;;;;476769;249;27392;-69
2021/01/20 02:08:25;;;;;;;2.97;2.58;;;3.20;99.90;;;;;;476762;249;27894;-69
2021/01/20 02:10:26;;;;;;;4.55;2.55;;;3.20;99.90;;;;;;476719;249;29068;-70
2021/01/20 02:12:27;;;;;;;2.90;2.60;;;3.20;99.90;;;;;;476778;249;28029;-69
2021/01/20 02:14:28;;;;;;;4.35;2.70;;;3.30;99.90;;;;;;476841;248;28039;-70
2021/01/20 02:16:30;;;;;;;5.40;2.45;;;3.30;99.90;;;;;;476892;249;27472;-69
2021/01/20 02:18:31;;;;;;;3.15;2.37;;;3.30;99.90;;;;;;476811;249;27523;-70
2021/01/20 02:20:32;;;;;;;2.50;2.20;;;3.30;99.90;;;;;;476803;249;27518;-72
2021/01/20 02:22:33;;;;;;;2.85;2.40;;;3.30;99.90;;;;;;476985;249;27487;-69
2021/01/20 02:24:35;;;;;;;2.20;2.00;;;3.30;99.90;;;;;;476980;249;27484;-69
2021/01/20 02:26:36;;;;;;;2.40;2.20;;;3.40;99.90;;;;;;476903;249;27447;-70
2021/01/20 02:28:37;;;;;;;2.80;2.60;;;3.40;99.90;;;;;;476833;249;27439;-69
2021/01/20 02:30:38;;;;;;;2.47;2.28;;;3.40;99.90;;;;;;476795;249;27516;-70
2021/01/20 02:32:40;;;;;;;2.30;2.10;;;3.40;99.90;;;;;;476813;249;27399;-69
2021/01/20 02:34:41;;;;;;;3.25;2.60;;;3.40;99.90;;;;;;476798;249;27443;-70
2021/01/20 02:36:42;;;;;;;2.10;1.90;;;3.40;99.90;;;;;;476771;249;27844;-69
2021/01/20 02:38:43;;;;;;;4.25;3.00;;;3.40;99.90;;;;;;476745;249;27912;-69
2021/01/20 02:40:45;;;;;;;3.17;2.20;;;3.40;99.90;;;;;;476714;249;29073;-70
2021/01/20 02:42:46;;;;;;;5.22;3.05;;;3.40;99.90;;;;;;476791;249;28948;-70
2021/01/20 02:44:47;;;;;;;4.57;2.58;;;3.40;99.90;;;;;;476787;249;27442;-70
2021/01/20 02:46:48;;;;;;;5.50;2.50;;;3.40;99.90;;;;;;476777;249;27456;-70
2021/01/20 02:48:50;;;;;;;2.60;2.40;;;3.40;99.90;;;;;;476745;249;27430;-70
2021/01/20 02:50:51;;;;;;;2.55;2.35;;;3.40;99.90;;;;;;476689;249;27478;-70
2021/01/20 02:52:53;;;;;;;2.55;2.35;;;3.40;99.90;;;;;;476797;249;27475;-70
2021/01/20 02:54:53;;;;;;;3.10;1.85;;;3.40;99.90;;;;;;476709;249;27426;-70
2021/01/20 02:56:55;;;;;;;4.97;2.83;;;3.40;99.90;;;;;;476782;249;27859;-71
2021/01/20 02:58:56;;;;;;;2.58;2.37;;;3.40;99.90;;;;;;476757;249;27431;-69
2021/01/20 03:00:57;;;;;;;5.53;2.78;;;3.40;99.90;;;;;;476724;249;27442;-70
2021/01/20 03:02:58;;;;;;;3.17;2.53;;;3.40;99.90;;;;;;476809;249;27463;-69
2021/01/20 03:05:00;;;;;;;4.43;2.58;;;3.40;99.90;;;;;;476810;249;27910;-70
2021/01/20 03:07:01;;;;;;;2.95;2.47;;;3.40;99.90;;;;;;476783;249;28015;-70
2021/01/20 03:09:02;;;;;;;2.60;2.30;;;3.40;99.90;;;;;;476769;249;28051;-69
2021/01/20 03:11:05;;;;;;;2.70;2.45;;;3.40;99.90;;;;;;476709;249;28728;-70
2021/01/20 03:13:05;;;;;;;2.58;2.37;;;3.40;99.90;;;;;;476692;249;27466;-69
2021/01/20 03:15:06;;;;;;;2.75;2.40;;;3.40;99.90;;;;;;476779;249;27432;-71
2021/01/20 03:17:07;;;;;;;2.67;2.25;;;3.30;99.90;;;;;;476885;249;27428;-69
2021/01/20 03:19:08;;;;;;;3.60;2.30;;;3.30;99.90;;;;;;476923;249;27391;-70
2021/01/20 03:21:10;;;;;;;2.95;2.40;;;3.30;99.90;;;;;;476900;249;27439;-71
2021/01/20 03:23:11;;;;;;;3.22;2.70;;;3.30;99.90;;;;;;476903;249;27754;-70
2021/01/20 03:25:12;;;;;;;3.80;2.50;;;3.30;99.90;;;;;;476945;249;27869;-71
2021/01/20 03:27:13;;;;;;;3.50;2.55;;;3.30;99.90;;;;;;476774;249;27439;-70
2021/01/20 03:29:15;;;;;;;2.75;2.20;;;3.40;99.90;;;;;;476782;249;27502;-70
2021/01/20 03:31:16;;;;;;;2.25;2.05;;;3.40;99.90;;;;;;476656;249;27430;-69
2021/01/20 03:33:17;;;;;;;2.70;2.28;;;3.40;99.90;;;;;;476756;249;28089;-71
2021/01/20 03:35:18;;;;;;;2.65;2.45;;;3.40;99.90;;;;;;476742;248;28067;-69
2021/01/20 03:37:20;;;;;;;3.10;2.40;;;3.30;99.90;;;;;;476774;249;27930;-69
2021/01/20 03:39:21;;;;;;;3.15;2.78;;;3.40;99.90;;;;;;476780;249;28586;-69
2021/01/20 03:41:22;;;;;;;2.85;2.58;;;3.40;99.90;;;;;;476747;249;27506;-69
2021/01/20 03:43:23;;;;;;;2.62;2.42;;;3.40;99.90;;;;;;476833;249;27455;-70
2021/01/20 03:45:25;;;;;;;2.75;2.33;;;3.40;99.90;;;;;;476809;249;27415;-70
2021/01/20 03:47:26;;;;;;;3.60;2.65;;;3.40;99.90;;;;;;476808;249;27454;-69
2021/01/20 03:49:27;;;;;;;4.05;2.30;;;3.40;99.90;;;;;;476850;249;27529;-69
2021/01/20 03:51:29;;;;;;;4.05;3.60;;;3.40;99.90;;;;;;476820;249;27439;-70
2021/01/20 03:53:30;;;;;;;3.78;3.47;;;3.40;99.90;;;;;;476932;249;27878;-69
2021/01/20 03:55:31;;;;;;;5.03;4.55;;;3.40;99.90;;;;;;476958;249;27454;-70
2021/01/20 03:57:32;;;;;;;6.43;5.93;;;3.50;99.90;;;;;;476982;249;27443;-69
2021/01/20 03:59:33;;;;;;;8.23;7.53;;;3.40;99.90;;;;;;476979;249;27544;-72
2021/01/20 04:01:35;;;;;;;6.60;6.00;;;3.40;99.90;;;;;;476935;249;27856;-69
2021/01/20 04:03:36;;;;;;;4.28;3.85;;;3.50;99.90;;;;;;476996;249;27900;-70
2021/01/20 04:05:37;;;;;;;3.10;2.90;;;3.50;99.90;;;;;;476970;249;27898;-69
2021/01/20 04:07:38;;;;;;;4.22;3.05;;;3.50;99.90;;;;;;476959;249;28018;-70
2021/01/20 04:09:40;;;;;;;6.00;2.70;;;3.50;99.90;;;;;;476961;249;27431;-72
2021/01/20 04:11:41;;;;;;;2.72;2.53;;;3.50;99.90;;;;;;476894;249;27483;-69
2021/01/20 04:13:42;;;;;;;3.00;2.70;;;3.50;99.90;;;;;;476917;249;27495;-69
2021/01/20 04:15:43;;;;;;;2.60;2.40;;;3.50;99.90;;;;;;476870;249;27415;-69
2021/01/20 04:17:45;;;;;;;5.28;4.55;;;3.50;99.90;;;;;;476857;249;27424;-69
2021/01/20 04:19:46;;;;;;;5.68;5.18;;;3.60;99.90;;;;;;476869;249;27448;-69
2021/01/20 04:21:49;;;;;;;4.50;3.33;;;3.60;99.90;;;;;;476796;249;27505;-70
2021/01/20 04:23:48;;;;;;;3.25;2.80;;;3.60;99.90;;;;;;476751;249;27435;-71
2021/01/20 04:25:50;;;;;;;6.70;3.70;;;3.60;99.90;;;;;;476813;249;27434;-71
2021/01/20 04:27:51;;;;;;;3.00;2.75;;;3.60;99.90;;;;;;476734;247;27473;-70
2021/01/20 04:29:52;;;;;;;3.05;2.72;;;3.60;99.90;;;;;;476838;249;27968;-71
2021/01/20 04:31:53;;;;;;;5.70;3.20;;;3.60;99.90;;;;;;476748;249;27979;-70
2021/01/20 04:33:55;;;;;;;3.83;2.70;;;3.60;99.90;;;;;;476811;249;29685;-71
2021/01/20 04:35:56;;;;;;;6.43;2.90;;;3.70;99.90;;;;;;476797;249;27962;-71
2021/01/20 04:37:57;;;;;;;4.20;3.08;;;3.70;99.90;;;;;;476804;249;27451;-70
2021/01/20 04:39:58;;;;;;;6.32;2.80;;;3.80;99.90;;;;;;476771;249;27649;-73
2021/01/20 04:42:00;;;;;;;4.65;2.90;;;3.80;99.90;;;;;;476794;249;27498;-70
2021/01/20 04:44:01;;;;;;;3.80;2.85;;;3.80;99.90;;;;;;476827;249;27517;-70
2021/01/20 04:46:02;;;;;;;3.40;2.80;;;3.90;99.90;;;;;;476797;249;27531;-70
2021/01/20 04:48:03;;;;;;;3.62;2.92;;;3.90;99.90;;;;;;476757;249;27432;-70
2021/01/20 04:50:05;;;;;;;2.70;2.47;;;3.90;99.90;;;;;;476723;249;27530;-70
2021/01/20 04:52:06;;;;;;;2.83;2.50;;;3.90;99.90;;;;;;476802;249;27521;-71
2021/01/20 04:54:07;;;;;;;3.47;2.67;;;3.90;99.90;;;;;;476802;249;27422;-70
2021/01/20 04:56:08;;;;;;;5.28;2.80;;;3.90;99.90;;;;;;476864;248;27938;-70
2021/01/20 04:58:10;;;;;;;2.97;2.53;;;3.90;99.90;;;;;;476881;249;27927;-70
2021/01/20 05:00:11;;;;;;;3.60;2.90;;;3.90;99.90;;;;;;476843;249;28011;-70
2021/01/20 05:02:12;;;;;;;3.53;2.67;;;3.90;99.90;;;;;;476807;249;28033;-72
2021/01/20 05:04:13;;;;;;;3.40;2.83;;;3.90;99.90;;;;;;476818;249;27451;-71
2021/01/20 05:06:15;;;;;;;5.65;3.22;;;3.90;99.90;;;;;;476694;249;27519;-71
2021/01/20 05:08:16;;;;;;;2.92;2.72;;;3.90;99.90;;;;;;476730;249;27533;-70
2021/01/20 05:10:17;;;;;;;3.17;2.60;;;4.00;99.90;;;;;;476751;249;27387;-70
2021/01/20 05:12:18;;;;;;;3.70;2.92;;;3.90;99.90;;;;;;476784;249;27447;-70
2021/01/20 05:14:20;;;;;;;4.35;2.70;;;3.90;99.90;;;;;;476770;248;27447;-72
2021/01/20 05:16:21;;;;;;;4.37;2.83;;;3.90;99.90;;;;;;476778;249;27462;-70
2021/01/20 05:18:22;;;;;;;5.80;3.12;;;4.00;99.90;;;;;;476830;249;27523;-70
2021/01/20 05:20:23;;;;;;;3.75;2.90;;;4.00;99.90;;;;;;476757;249;27818;-70
2021/01/20 05:22:25;;;;;;;3.12;2.80;;;3.90;99.90;;;;;;476795;249;27431;-71
2021/01/20 05:24:26;;;;;;;4.10;3.30;;;4.00;99.90;;;;;;476782;249;28025;-71
2021/01/20 05:26:27;;;;;;;3.75;3.20;;;4.00;99.90;;;;;;476781;249;27916;-70
2021/01/20 05:28:28;;;;;;;3.70;3.10;;;4.00;99.90;;;;;;476838;249;27997;-72
2021/01/20 05:30:30;;;;;;;3.25;2.87;;;4.00;99.90;;;;;;476821;249;29019;-70
2021/01/20 05:32:31;;;;;;;3.53;3.10;;;4.10;99.90;;;;;;476971;249;27416;-71
2021/01/20 05:34:32;;;;;;;3.95;3.05;;;4.10;99.90;;;;;;476978;249;27384;-70
2021/01/20 05:36:33;;;;;;;4.80;3.70;;;4.10;99.90;;;;;;476957;249;27416;-71
2021/01/20 05:38:35;;;;;;;7.87;4.30;;;4.10;99.90;;;;;;476928;249;27501;-72
2021/01/20 05:40:36;;;;;;;5.75;3.60;;;4.10;99.90;;;;;;476838;249;27382;-70
2021/01/20 05:42:37;;;;;;;4.47;3.55;;;4.10;99.90;;;;;;476843;248;27486;-71
2021/01/20 05:44:38;;;;;;;3.80;3.00;;;4.10;99.90;;;;;;476825;249;27443;-70
2021/01/20 05:46:40;;;;;;;5.40;3.62;;;4.10;99.90;;;;;;476803;249;27479;-70
2021/01/20 05:48:41;;;;;;;5.35;2.80;;;4.10;99.90;;;;;;476810;249;27499;-71
2021/01/20 05:50:42;;;;;;;4.22;3.10;;;4.10;99.90;;;;;;476746;249;27396;-70
2021/01/20 05:52:43;;;;;;;6.32;5.78;;;4.00;99.90;;;;;;476782;249;28018;-71
2021/01/20 05:54:45;;;;;;;4.90;3.50;;;4.00;99.90;;;;;;476760;249;28009;-71
2021/01/20 05:56:46;;;;;;;5.15;3.42;;;4.10;99.90;;;;;;476759;249;28992;-70
2021/01/20 05:58:47;;;;;;;5.18;3.70;;;4.10;99.90;;;;;;476820;249;27407;-71
2021/01/20 06:00:48;;;;;;;5.80;4.00;;;4.10;99.90;;;;;;476747;249;27527;-70
2021/01/20 06:02:50;;;;;;;4.32;3.83;;;4.10;99.90;;;;;;476754;249;27446;-70
2021/01/20 06:04:51;;;;;;;4.10;3.10;;;4.10;99.90;;;;;;476774;249;27507;-72
2021/01/20 06:06:52;;;;;;;7.53;3.47;;;4.10;99.90;;;;;;476744;249;27527;-70
2021/01/20 06:08:53;;;;;;;7.50;3.75;;;4.20;99.90;;;;;;476822;249;27859;-71
2021/01/20 06:10:55;;;;;;;4.35;3.40;;;4.20;99.90;;;;;;476746;249;27387;-70
2021/01/20 06:12:56;;;;;;;7.15;3.30;;;4.20;99.90;;;;;;476799;249;27443;-70
2021/01/20 06:14:57;;;;;;;4.78;3.35;;;4.20;99.90;;;;;;476748;249;27507;-71
2021/01/20 06:16:58;;;;;;;5.43;3.97;;;4.20;99.90;;;;;;476741;249;27431;-70
2021/01/20 06:19:00;;;;;;;4.95;3.60;;;4.20;99.90;;;;;;476802;249;27898;-72
2021/01/20 06:21:01;;;;;;;6.18;3.37;;;4.20;99.90;;;;;;476761;249;27959;-69
2021/01/20 06:23:02;;;;;;;6.85;3.45;;;4.30;99.90;;;;;;476739;249;27922;-71
2021/01/20 06:25:03;;;;;;;8.85;3.42;;;4.30;99.90;;;;;;476789;249;27943;-70
2021/01/20 06:27:05;;;;;;;4.70;3.83;;;4.30;99.90;;;;;;476826;249;27411;-70
2021/01/20 06:29:06;;;;;;;4.72;3.40;;;4.30;99.90;;;;;;476886;249;27462;-70
2021/01/20 06:31:07;;;;;;;8.93;3.85;;;4.30;99.90;;;;;;476757;249;27535;-71
2021/01/20 06:33:09;;;;;;;3.92;3.25;;;4.20;99.90;;;;;;476797;249;27779;-72
2021/01/20 06:35:10;;;;;;;9.50;3.87;;;4.20;99.90;;;;;;476727;249;27427;-70
2021/01/20 06:37:11;;;;;;;5.03;3.50;;;4.20;99.90;;;;;;476716;249;27435;-70
2021/01/20 06:39:12;;;;;;;5.12;3.20;;;4.20;99.90;;;;;;476769;249;27537;-70
2021/01/20 06:41:13;;;;;;;3.78;3.40;;;4.20;99.90;;;;;;476731;249;27531;-72
2021/01/20 06:43:15;;;;;;;5.15;3.30;;;4.30;99.90;;;;;;476793;249;28115;-72
2021/01/20 06:45:16;;;;;;;5.50;3.47;;;4.30;99.90;;;;;;476762;249;27887;-71
2021/01/20 06:47:17;;;;;;;4.22;3.12;;;4.30;99.90;;;;;;476777;249;27915;-70
2021/01/20 06:49:18;;;;;;;5.78;3.55;;;4.30;99.90;;;;;;476806;249;27424;-70
2021/01/20 06:51:20;;;;;;;6.15;3.67;;;4.40;99.90;;;;;;476733;249;27432;-70
2021/01/20 06:53:21;;;;;;;4.12;3.60;;;4.40;99.90;;;;;;476762;249;27510;-72
2021/01/20 06:55:22;;;;;;;5.75;3.40;;;4.50;99.90;;;;;;476762;249;27432;-70
2021/01/20 06:57:25;;;;;;;4.03;3.50;;;4.50;99.90;;;;;;476805;249;27764;-72
2021/01/20 06:59:25;;;;;;;7.47;3.70;;;4.50;99.90;;;;;;476761;248;27400;-70
2021/01/20 07:01:26;;;;;;;5.70;3.30;;;4.50;99.90;;;;;;476810;249;27459;-70
2021/01/20 07:03:27;;;;;;;6.75;3.78;;;4.60;99.90;;;;;;476878;249;27984;-71
2021/01/20 07:05:29;;;;;;;5.30;3.60;;;4.60;99.90;;;;;;476778;249;27855;-70
2021/01/20 07:07:30;;;;;;;4.95;3.55;;;4.60;99.90;;;;;;476660;249;28013;-71
2021/01/20 07:09:31;;;;;;;6.00;3.62;;;4.60;99.90;;;;;;476695;249;27472;-70
2021/01/20 07:11:32;;;;;;;4.47;3.25;;;4.60;99.90;;;;;;476612;249;27483;-70
2021/01/20 07:13:34;;;;;;;5.12;3.30;;;4.60;99.90;;;;;;476814;249;27527;-71
2021/01/20 07:15:35;;;;;;;4.85;3.22;;;4.60;99.90;;;;;;476898;249;27398;-70
2021/01/20 07:17:36;;;;;;;4.18;3.40;;;4.60;99.90;;;;;;476931;249;27455;-70
2021/01/20 07:19:38;;;;;;;6.40;3.60;;;4.60;99.90;;;;;;476925;249;27375;-70
2021/01/20 07:21:39;;;;;;;5.35;3.37;;;4.60;99.90;;;;;;476824;249;27473;-70
2021/01/20 07:23:40;;;;;;;5.47;3.30;;;4.70;99.90;;;;;;476970;249;27423;-72
2021/01/20 07:25:41;;;;;;;5.82;3.30;;;4.70;99.90;;;;;;477016;249;27836;-70
2021/01/20 07:27:42;;;;;;;5.28;3.58;;;4.70;99.90;;;;;;476852;249;27906;-71
2021/01/20 07:29:46;;;;;;;4.72;3.47;;;4.70;99.90;;;;;;476820;249;27449;-71
2021/01/20 07:31:45;;;;;;;5.25;3.25;;;4.70;99.90;;;;;;476591;249;27507;-71
2021/01/20 07:33:46;;;;;;;4.22;3.65;;;4.80;99.90;;;;;;476799;249;27519;-71
2021/01/20 07:35:47;;;;;;;5.62;3.30;;;4.80;99.90;;;;;;476797;249;27431;-71
2021/01/20 07:37:49;;;;;;;4.55;3.05;;;4.80;99.90;;;;;;476791;249;27518;-70
2021/01/20 07:39:50;;;;;;;9.10;3.80;;;4.80;99.90;;;;;;476838;248;27395;-70
2021/01/20 07:41:51;;;;;;;9.82;3.85;;;4.80;99.90;;;;;;476713;249;27419;-71
2021/01/20 07:43:52;;;;;;;4.35;3.20;;;4.80;99.90;;;;;;476806;249;27938;-71
2021/01/20 07:45:54;;;;;;;3.42;3.10;;;4.90;99.90;;;;;;476786;249;28075;-71
2021/01/20 07:47:55;;;;;;;4.68;2.97;;;4.90;99.90;;;;;;476789;249;27697;-71
2021/01/20 07:49:56;;;;;;;7.70;3.33;;;4.90;99.90;;;;;;476798;249;27523;-70
2021/01/20 07:51:57;;;;;;;4.85;3.12;;;4.90;99.90;;;;;;476752;249;27427;-70
2021/01/20 07:53:59;;;;;;;7.05;3.33;;;4.90;99.90;;;;;;476784;249;27455;-70
2021/01/20 07:56:00;;;;;;;3.90;2.83;;;5.00;99.90;;;;;;476783;249;27408;-70
2021/01/20 07:58:01;;;;;;;5.05;3.22;;;5.00;99.90;;;;;;476832;249;27427;-70
2021/01/20 08:00:04;;;;;;;4.55;2.90;;;5.00;99.90;;;;;;476853;249;27545;-71
2021/01/20 08:02:04;;;;;;;5.22;3.30;;;5.00;99.90;;;;;;476897;249;27939;-71
2021/01/20 08:04:05;;;;;;;4.43;3.05;;;5.00;99.90;;;;;;476895;249;27901;-71
2021/01/20 08:06:10;;;;;;;5.70;3.25;;;5.00;99.90;;;;;;476802;249;27987;-71
2021/01/20 08:08:07;;;;;;;5.00;2.95;;;5.10;99.90;;;;;;476587;249;27502;-70
2021/01/20 08:10:09;;;;;;;7.32;3.00;;;5.10;99.90;;;;;;476680;249;27507;-71
2021/01/20 08:12:10;;;;;;;3.30;2.80;;;5.10;99.90;;;;;;476774;248;27439;-71
2021/01/20 08:14:11;;;;;;;8.32;4.05;;;5.10;99.90;;;;;;476719;249;27754;-70
2021/01/20 08:16:12;;;;;;;7.07;3.30;;;5.10;99.90;;;;;;476783;249;27426;-71
2021/01/20 08:18:14;;;;;;;6.00;2.90;;;5.20;99.90;;;;;;476792;249;27407;-70
2021/01/20 08:20:15;;;;;;;4.25;2.75;;;5.20;99.90;;;;;;476720;249;28027;-70
2021/01/20 08:22:16;;;;;;;7.12;3.33;;;5.20;99.90;;;;;;476781;249;28006;-71
2021/01/20 08:24:17;;;;;;;4.55;3.05;;;5.30;99.90;;;;;;476802;249;27420;-71
2021/01/20 08:26:19;;;;;;;4.72;3.10;;;5.30;99.90;;;;;;476866;249;27434;-73
2021/01/20 08:28:20;;;;;;;5.82;3.17;;;5.30;99.90;;;;;;476945;249;27391;-70
2021/01/20 08:30:21;;;;;;;5.53;2.62;;;5.30;99.90;;;;;;476895;249;27743;-71
2021/01/20 08:32:22;;;;;;;5.97;2.80;;;5.40;99.90;;;;;;476973;247;27499;-70
2021/01/20 08:34:25;;;;;;;3.80;2.87;;;5.40;99.90;;;;;;477007;249;27437;-71
2021/01/20 08:36:26;;;;;;;3.95;3.00;;;5.40;99.90;;;;;;476989;249;27391;-70
2021/01/20 08:38:28;;;;;;;7.32;3.15;;;5.50;99.90;;;;;;477024;249;27423;-71
2021/01/20 08:40:29;;;;;;;5.60;2.97;;;5.50;99.90;;;;;;476936;249;27427;-70
2021/01/20 08:42:32;;;;;;;3.20;2.90;;;5.50;99.90;;;;;;477022;249;27500;-71
2021/01/20 08:44:31;;;;;;;4.60;3.35;;;5.60;99.90;;;;;;476854;249;27916;-71
2021/01/20 08:46:34;;;;;;;3.12;2.47;;;5.70;99.90;;;;;;476911;249;27847;-70
2021/01/20 08:48:34;;;;;;;5.30;3.33;;;5.60;99.90;;;;;;476738;249;27419;-71
2021/01/20 08:50:35;;;;;;;4.55;2.95;;;5.70;99.90;;;;;;476787;249;27446;-71
2021/01/20 08:52:36;;;;;;;4.72;2.85;;;5.70;99.90;;;;;;476788;249;27419;-71
2021/01/20 08:54:38;;;;;;;3.50;3.08;;;5.70;99.90;;;;;;476810;249;27533;-71
2021/01/20 08:56:39;;;;;;;14.90;7.50;;;5.70;99.90;;;;;;476688;249;27427;-71
2021/01/20 08:58:40;;;;;;;7.85;3.65;;;5.80;99.90;;;;;;476808;249;28064;-71
2021/01/20 09:00:41;;;;;;;3.40;2.97;;;5.80;99.90;;;;;;476744;249;29162;-71
2021/01/20 09:02:43;;;;;;;7.95;3.20;;;5.80;99.90;;;;;;476809;249;27957;-71
2021/01/20 09:04:44;;;;;;;5.07;2.60;;;5.90;99.90;;;;;;476800;249;27428;-72
2021/01/20 09:06:45;;;;;;;4.57;2.85;;;5.90;99.90;;;;;;476809;249;27430;-71
2021/01/20 09:08:46;;;;;;;5.75;2.70;;;5.90;99.90;;;;;;476796;249;27420;-71
2021/01/20 09:10:48;;;;;;;5.60;2.75;;;6.00;99.90;;;;;;476719;249;27459;-70
2021/01/20 09:12:49;;;;;;;6.07;3.10;;;6.00;99.90;;;;;;476817;248;27434;-71
2021/01/20 09:14:50;;;;;;;4.20;2.72;;;6.00;99.90;;;;;;476843;249;27995;-72
2021/01/20 09:16:51;;;;;;;3.03;2.73;;;6.10;99.90;;;;;;476910;249;28076;-70
2021/01/20 09:18:53;;;;;;;4.28;2.83;;;6.10;99.90;;;;;;476862;249;28827;-72
2021/01/20 09:20:54;;;;;;;6.78;2.95;;;6.10;99.90;;;;;;476745;249;27439;-71
2021/01/20 09:22:55;;;;;;;3.45;2.55;;;6.20;99.90;;;;;;476801;249;27507;-71
2021/01/20 09:24:56;;;;;;;12.70;3.30;;;6.20;99.90;;;;;;476820;248;27400;-71
2021/01/20 09:26:58;;;;;;;3.83;2.70;;;6.30;99.90;;;;;;476820;249;27511;-72
2021/01/20 09:28:59;;;;;;;7.53;2.87;;;6.30;99.90;;;;;;476801;249;28057;-71
2021/01/20 09:31:00;;;;;;;6.00;3.10;;;6.30;99.90;;;;;;476772;248;27902;-71
2021/01/20 09:33:01;;;;;;;5.95;2.30;;;6.40;99.90;;;;;;476847;249;27531;-72
2021/01/20 09:35:03;;;;;;;2.97;2.42;;;6.50;99.90;;;;;;476793;249;27379;-70
2021/01/20 09:37:04;;;;;;;5.55;2.47;;;6.50;99.90;;;;;;476775;249;27439;-71
2021/01/20 09:39:05;;;;;;;3.22;2.60;;;6.60;99.90;;;;;;476822;249;27546;-72
2021/01/20 09:41:07;;;;;;;5.17;3.00;;;6.60;99.90;;;;;;476791;249;27858;-71
2021/01/20 09:43:08;;;;;;;4.47;2.70;;;6.60;99.90;;;;;;476804;249;28949;-72
2021/01/20 09:45:09;;;;;;;5.00;2.50;;;6.70;99.90;;;;;;476808;249;28256;-70
2021/01/20 09:47:10;;;;;;;4.73;2.43;;;6.70;99.90;;;;;;476804;249;28481;-70
2021/01/20 09:49:11;;;;;;;5.60;2.67;;;6.80;99.90;;;;;;476804;249;29337;-72
2021/01/20 09:51:13;;;;;;;5.65;2.30;;;6.80;99.90;;;;;;476674;249;27823;-70
2021/01/20 09:53:14;;;;;;;4.40;2.60;;;6.80;99.90;;;;;;476849;249;27514;-71
2021/01/20 09:55:15;;;;;;;2.53;2.10;;;6.90;99.90;;;;;;476863;249;27864;-71
2021/01/20 09:57:16;;;;;;;6.63;2.40;;;6.90;99.90;;;;;;476916;249;27890;-71
2021/01/20 09:59:18;;;;;;;4.00;2.40;;;6.90;99.90;;;;;;476992;249;28010;-73
2021/01/20 10:01:19;;;;;;;7.20;2.33;;;7.00;99.90;;;;;;476901;249;27527;-71
2021/01/20 10:03:20;;;;;;;4.90;2.90;;;7.00;99.90;;;;;;476980;249;27432;-71
2021/01/20 10:05:22;;;;;;;3.47;2.83;;;7.00;99.90;;;;;;476968;249;28640;-70
2021/01/20 10:07:23;;;;;;;5.23;2.60;;;7.10;99.90;;;;;;476986;249;28445;-71
2021/01/20 10:09:25;;;;;;;2.87;2.30;;;7.10;99.90;;;;;;477010;249;28738;-72
2021/01/20 10:11:25;;;;;;;4.10;2.80;;;7.10;99.90;;;;;;476848;249;28330;-70
2021/01/20 10:13:27;;;;;;;8.53;2.50;;;7.20;99.90;;;;;;476819;249;28501;-71
2021/01/20 10:15:28;;;;;;;6.00;2.33;;;7.10;99.90;;;;;;476825;249;28264;-71
2021/01/20 10:17:29;;;;;;;4.93;2.50;;;7.10;99.90;;;;;;476791;249;27904;-70
2021/01/20 10:19:30;;;;;;;5.27;2.90;;;7.10;99.90;;;;;;476799;248;27590;-71
2021/01/20 10:21:32;;;;;;;6.90;2.90;;;7.20;99.90;;;;;;476794;248;27964;-71
2021/01/20 10:23:33;;;;;;;1.97;1.87;;;7.20;99.90;;;;;;476819;249;27936;-71
2021/01/20 10:25:34;;;;;;;2.63;2.30;;;7.20;99.90;;;;;;476809;249;27810;-70
2021/01/20 10:27:35;;;;;;;3.50;2.10;;;7.30;99.90;;;;;;476807;249;27904;-71
2021/01/20 10:29:36;;;;;;;4.03;2.33;;;7.30;99.90;;;;;;476774;249;27989;-71
2021/01/20 10:31:38;;;;;;;3.27;2.20;;;7.40;99.90;;;;;;476772;249;27577;-70
2021/01/20 10:33:39;;;;;;;4.30;2.80;;;7.40;99.90;;;;;;476812;249;27821;-72
2021/01/20 10:35:40;;;;;;;7.17;2.83;;;7.40;99.90;;;;;;476832;249;27920;-72
2021/01/20 10:37:41;;;;;;;2.90;2.60;;;7.30;99.90;;;;;;476775;249;28102;-71
2021/01/20 10:39:44;;;;;;;5.67;2.20;;;7.40;99.90;;;;;;476747;249;27978;-72